createdAt,value
2023-05-12T00:00:47.015Z,30.24
2023-05-12T00:01:47.012Z,30.24
2023-05-12T00:02:47.056Z,30.19
2023-05-12T00:03:47.338Z,30.26
2023-05-12T00:04:47.042Z,30.26
2023-05-12T00:05:46.959Z,30.24
2023-05-12T00:06:46.952Z,30.21
2023-05-12T00:07:46.951Z,30.04
2023-05-12T00:08:46.966Z,30.13
2023-05-12T00:09:46.928Z,30.06
2023-05-12T00:10:46.908Z,30.06
2023-05-12T00:11:46.946Z,30.02
2023-05-12T00:12:46.861Z,30.00
2023-05-12T00:13:46.905Z,30.00
2023-05-12T00:14:46.842Z,29.95
2023-05-12T00:15:46.878Z,29.95
2023-05-12T00:16:46.977Z,29.74
2023-05-12T00:17:46.812Z,29.95
2023-05-12T00:18:46.848Z,30.04
2023-05-12T00:19:46.768Z,29.97
2023-05-12T00:20:46.758Z,29.95
2023-05-12T00:21:46.757Z,30.04
2023-05-12T00:22:46.722Z,29.78
2023-05-12T00:23:46.716Z,29.95
2023-05-12T00:24:46.702Z,29.89
2023-05-12T00:25:47.087Z,29.89
2023-05-12T00:26:46.680Z,29.80
2023-05-12T00:27:46.700Z,29.91
2023-05-12T00:28:46.648Z,30.00
2023-05-12T00:29:46.657Z,29.95
2023-05-12T00:30:46.642Z,29.84
2023-05-12T00:31:46.758Z,29.80
2023-05-12T00:32:46.643Z,29.78
2023-05-12T00:33:46.600Z,30.00
2023-05-12T00:34:46.608Z,30.04
2023-05-12T00:35:46.590Z,30.04
2023-05-12T00:36:46.554Z,30.04
2023-05-12T00:37:46.564Z,30.00
2023-05-12T00:38:46.536Z,29.97
2023-05-12T00:39:46.512Z,30.00
2023-05-12T00:40:46.529Z,30.04
2023-05-12T00:41:46.512Z,29.74
2023-05-12T00:42:46.490Z,29.80
2023-05-12T00:43:46.481Z,29.74
2023-05-12T00:44:46.481Z,30.08
2023-05-12T00:45:46.512Z,29.87
2023-05-12T00:46:46.440Z,29.78
2023-05-12T00:47:46.458Z,29.76
2023-05-12T00:48:46.415Z,29.80
2023-05-12T00:49:46.409Z,29.87
2023-05-12T00:50:46.612Z,29.82
2023-05-12T00:51:46.404Z,29.78
2023-05-12T00:52:46.367Z,29.91
2023-05-12T00:53:50.279Z,30.02
2023-05-12T00:54:46.361Z,29.82
2023-05-12T00:55:46.331Z,29.87
2023-05-12T00:56:46.351Z,29.97
2023-05-12T00:57:46.289Z,29.84
2023-05-12T00:58:46.303Z,29.78
2023-05-12T00:59:46.288Z,29.91
2023-05-12T01:00:46.267Z,29.76
2023-05-12T01:01:46.259Z,29.65
2023-05-12T01:02:46.344Z,29.82
2023-05-12T01:03:46.329Z,29.70
2023-05-12T01:04:46.234Z,29.61
2023-05-12T01:05:46.211Z,29.67
2023-05-12T01:06:46.196Z,29.57
2023-05-12T01:07:46.171Z,29.72
2023-05-12T01:08:46.197Z,29.76
2023-05-12T01:09:46.140Z,29.65
2023-05-12T01:10:46.157Z,29.70
2023-05-12T01:11:46.126Z,29.57
2023-05-12T01:12:46.139Z,29.65
2023-05-12T01:13:46.093Z,29.78
2023-05-12T01:14:46.078Z,29.44
2023-05-12T01:15:46.127Z,29.63
2023-05-12T01:16:46.081Z,29.59
2023-05-12T01:17:46.111Z,29.59
2023-05-12T01:18:46.067Z,29.59
2023-05-12T01:19:46.031Z,29.46
2023-05-12T01:20:46.004Z,29.46
2023-05-12T01:21:46.028Z,29.46
2023-05-12T01:22:46.030Z,29.34
2023-05-12T01:23:45.979Z,29.42
2023-05-12T01:24:45.992Z,29.32
2023-05-12T01:25:45.984Z,29.42
2023-05-12T01:26:45.953Z,29.36
2023-05-12T01:27:45.928Z,29.32
2023-05-12T01:28:45.914Z,29.36
2023-05-12T01:29:45.926Z,29.40
2023-05-12T01:30:45.938Z,29.46
2023-05-12T01:31:45.918Z,29.30
2023-05-12T01:32:45.875Z,29.32
2023-05-12T01:33:45.847Z,29.28
2023-05-12T01:34:45.832Z,29.30
2023-05-12T01:35:45.824Z,29.15
2023-05-12T01:36:45.820Z,29.32
2023-05-12T01:37:45.787Z,29.34
2023-05-12T01:38:45.780Z,29.30
2023-05-12T01:39:45.785Z,29.26
2023-05-12T01:40:45.776Z,29.28
2023-05-12T01:41:45.744Z,29.22
2023-05-12T01:42:45.733Z,29.11
2023-05-12T01:43:45.721Z,29.01
2023-05-12T01:44:45.739Z,29.11
2023-05-12T01:45:45.693Z,29.17
2023-05-12T01:46:45.741Z,29.17
2023-05-12T01:47:45.681Z,29.17
2023-05-12T01:48:45.684Z,29.22
2023-05-12T01:49:45.652Z,29.26
2023-05-12T01:50:45.696Z,29.32
2023-05-12T01:51:45.657Z,29.26
2023-05-12T01:52:45.628Z,29.22
2023-05-12T01:53:45.616Z,29.19
2023-05-12T01:54:45.597Z,29.13
2023-05-12T01:55:45.568Z,29.13
2023-05-12T01:56:45.572Z,29.09
2023-05-12T01:57:45.589Z,29.11
2023-05-12T01:58:45.615Z,29.09
2023-05-12T01:59:45.551Z,29.19
2023-05-12T02:00:45.506Z,29.11
2023-05-12T02:01:45.518Z,29.09
2023-05-12T02:02:45.562Z,29.13
2023-05-12T02:03:45.610Z,29.01
2023-05-12T02:04:45.486Z,29.15
2023-05-12T02:05:45.465Z,29.13
2023-05-12T02:06:45.438Z,29.30
2023-05-12T02:07:45.437Z,28.99
2023-05-12T02:08:54.617Z,29.15
2023-05-12T02:09:45.448Z,29.15
2023-05-12T02:10:45.402Z,29.13
2023-05-12T02:11:45.410Z,29.15
2023-05-12T02:12:45.472Z,28.95
2023-05-12T02:13:45.424Z,29.03
2023-05-12T02:14:45.351Z,29.07
2023-05-12T02:15:45.428Z,29.07
2023-05-12T02:16:45.392Z,29.03
2023-05-12T02:17:45.466Z,29.09
2023-05-12T02:18:45.308Z,29.07
2023-05-12T02:19:45.275Z,29.01
2023-05-12T02:20:45.267Z,28.97
2023-05-12T02:21:45.270Z,29.01
2023-05-12T02:22:45.250Z,28.89
2023-05-12T02:23:45.236Z,28.97
2023-05-12T02:24:45.232Z,28.81
2023-05-12T02:25:45.205Z,28.91
2023-05-12T02:26:45.199Z,29.13
2023-05-12T02:27:45.193Z,28.91
2023-05-12T02:28:45.180Z,28.87
2023-05-12T02:29:45.155Z,28.99
2023-05-12T02:30:45.162Z,28.73
2023-05-12T02:31:45.176Z,28.73
2023-05-12T02:32:45.160Z,28.81
2023-05-12T02:33:45.155Z,28.87
2023-05-12T02:34:45.095Z,28.87
2023-05-12T02:35:45.083Z,28.89
2023-05-12T02:36:45.107Z,28.85
2023-05-12T02:37:45.086Z,28.75
2023-05-12T02:38:45.058Z,28.79
2023-05-12T02:39:45.043Z,28.81
2023-05-12T02:40:45.042Z,28.75
2023-05-12T02:41:45.022Z,28.93
2023-05-12T02:42:45.004Z,28.81
2023-05-12T02:43:45.008Z,28.77
2023-05-12T02:44:44.992Z,28.75
2023-05-12T02:45:44.983Z,28.69
2023-05-12T02:46:44.957Z,28.71
2023-05-12T02:47:44.984Z,28.65
2023-05-12T02:48:44.969Z,28.65
2023-05-12T02:49:44.931Z,28.71
2023-05-12T02:50:44.899Z,28.61
2023-05-12T02:51:44.897Z,28.61
2023-05-12T02:52:44.908Z,28.67
2023-05-12T02:53:44.876Z,28.67
2023-05-12T02:54:44.858Z,28.83
2023-05-12T02:55:44.887Z,28.85
2023-05-12T02:56:44.829Z,28.71
2023-05-12T02:57:44.818Z,28.63
2023-05-12T02:58:44.828Z,28.83
2023-05-12T02:59:44.788Z,28.63
2023-05-12T03:00:44.787Z,28.61
2023-05-12T03:01:44.826Z,28.61
2023-05-12T03:02:44.817Z,28.61
2023-05-12T03:03:44.973Z,28.61
2023-05-12T03:04:44.754Z,28.55
2023-05-12T03:05:44.718Z,28.79
2023-05-12T03:06:44.704Z,28.55
2023-05-12T03:07:44.725Z,28.63
2023-05-12T03:08:44.692Z,28.57
2023-05-12T03:09:44.672Z,28.57
2023-05-12T03:10:44.678Z,28.57
2023-05-12T03:11:44.662Z,28.50
2023-05-12T03:12:44.636Z,28.50
2023-05-12T03:13:44.666Z,28.53
2023-05-12T03:14:44.631Z,28.42
2023-05-12T03:15:44.608Z,28.44
2023-05-12T03:16:44.658Z,28.55
2023-05-12T03:17:44.620Z,28.50
2023-05-12T03:18:44.618Z,28.51
2023-05-12T03:19:44.567Z,28.63
2023-05-12T03:20:44.530Z,28.59
2023-05-12T03:21:44.539Z,28.61
2023-05-12T03:22:44.540Z,28.67
2023-05-12T03:23:44.503Z,28.69
2023-05-12T03:24:44.491Z,28.67
2023-05-12T03:25:44.490Z,28.77
2023-05-12T03:26:44.490Z,28.63
2023-05-12T03:27:44.492Z,28.59
2023-05-12T03:28:44.457Z,28.57
2023-05-12T03:29:44.435Z,28.73
2023-05-12T03:30:44.415Z,28.61
2023-05-12T03:31:44.555Z,28.75
2023-05-12T03:32:44.428Z,28.61
2023-05-12T03:33:44.385Z,28.63
2023-05-12T03:34:44.379Z,28.65
2023-05-12T03:35:44.366Z,28.61
2023-05-12T03:36:44.331Z,28.75
2023-05-12T03:37:44.372Z,28.57
2023-05-12T03:38:44.320Z,28.55
2023-05-12T03:39:44.317Z,28.55
2023-05-12T03:40:44.341Z,28.61
2023-05-12T03:41:44.297Z,28.50
2023-05-12T03:42:44.287Z,28.55
2023-05-12T03:43:44.278Z,28.53
2023-05-12T03:44:44.250Z,28.48
2023-05-12T03:45:44.242Z,28.57
2023-05-12T03:46:44.297Z,28.50
2023-05-12T03:47:44.459Z,28.51
2023-05-12T03:48:44.220Z,28.46
2023-05-12T03:49:44.185Z,28.28
2023-05-12T03:50:44.180Z,28.28
2023-05-12T03:51:44.168Z,28.50
2023-05-12T03:52:44.151Z,28.44
2023-05-12T03:53:44.138Z,28.44
2023-05-12T03:54:44.128Z,28.44
2023-05-12T03:55:44.114Z,28.40
2023-05-12T03:56:44.143Z,28.57
2023-05-12T03:57:44.104Z,28.51
2023-05-12T03:58:44.105Z,28.51
2023-05-12T03:59:44.068Z,28.50
2023-05-12T04:00:44.306Z,28.44
2023-05-12T04:01:44.087Z,28.51
2023-05-12T04:02:44.092Z,28.50
2023-05-12T04:03:44.162Z,28.53
2023-05-12T04:04:44.003Z,28.71
2023-05-12T04:05:44.005Z,28.51
2023-05-12T04:06:43.975Z,28.44
2023-05-12T04:07:43.996Z,28.59
2023-05-12T04:08:43.952Z,28.38
2023-05-12T04:09:43.982Z,28.63
2023-05-12T04:10:43.941Z,28.55
2023-05-12T04:11:43.908Z,28.53
2023-05-12T04:12:43.915Z,28.40
2023-05-12T04:13:43.941Z,28.36
2023-05-12T04:14:43.930Z,28.53
2023-05-12T04:15:43.881Z,28.53
2023-05-12T04:16:43.991Z,28.48
2023-05-12T04:17:43.859Z,28.40
2023-05-12T04:18:43.858Z,28.55
2023-05-12T04:19:43.829Z,28.55
2023-05-12T04:20:43.801Z,28.48
2023-05-12T04:21:43.824Z,28.53
2023-05-12T04:22:43.782Z,28.61
2023-05-12T04:23:43.770Z,28.51
2023-05-12T04:24:43.764Z,28.55
2023-05-12T04:25:43.804Z,28.63
2023-05-12T04:26:43.737Z,28.69
2023-05-12T04:27:43.739Z,28.48
2023-05-12T04:28:43.700Z,28.48
2023-05-12T04:29:43.709Z,28.67
2023-05-12T04:30:43.708Z,28.63
2023-05-12T04:32:42.871Z,32.25
2023-05-12T04:33:42.731Z,32.18
2023-05-12T04:34:42.681Z,31.78
2023-05-12T04:35:42.566Z,31.57
2023-05-12T04:36:42.557Z,31.26
2023-05-12T04:37:42.548Z,31.21
2023-05-12T04:38:42.504Z,30.91
2023-05-12T04:39:42.495Z,30.84
2023-05-12T04:40:42.502Z,30.66
2023-05-12T04:41:42.466Z,30.48
2023-05-12T04:42:42.476Z,30.34
2023-05-12T04:44:42.487Z,30.08
2023-05-12T04:45:42.501Z,30.04
2023-05-12T04:46:42.519Z,29.91
2023-05-12T04:47:42.496Z,29.87
2023-05-12T04:48:42.444Z,29.61
2023-05-12T04:49:42.441Z,29.74
2023-05-12T04:50:42.393Z,29.65
2023-05-12T04:51:42.603Z,29.72
2023-05-12T04:52:42.419Z,29.63
2023-05-12T04:53:42.340Z,29.44
2023-05-12T04:54:42.337Z,29.44
2023-05-12T04:55:42.319Z,29.53
2023-05-12T04:56:42.992Z,29.36
2023-05-12T04:57:42.321Z,29.28
2023-05-12T04:58:42.304Z,29.24
2023-05-12T04:59:42.263Z,29.26
2023-05-12T05:00:42.263Z,29.19
2023-05-12T05:01:42.279Z,29.17
2023-05-12T05:02:42.333Z,29.11
2023-05-12T05:03:42.345Z,28.93
2023-05-12T05:04:42.188Z,29.09
2023-05-12T05:05:42.202Z,28.99
2023-05-12T05:06:42.171Z,28.99
2023-05-12T05:07:42.146Z,28.95
2023-05-12T05:08:42.168Z,29.03
2023-05-12T05:09:42.120Z,29.07
2023-05-12T05:10:42.138Z,29.11
2023-05-12T05:11:42.126Z,29.07
2023-05-12T05:12:42.114Z,29.07
2023-05-12T05:13:42.120Z,29.11
2023-05-12T05:14:42.087Z,28.93
2023-05-12T05:15:42.069Z,28.85
2023-05-12T05:16:42.057Z,28.97
2023-05-12T05:17:42.050Z,28.87
2023-05-12T05:18:42.088Z,28.99
2023-05-12T05:19:55.136Z,28.85
2023-05-12T05:20:45.169Z,28.81
2023-05-12T05:21:41.992Z,28.73
2023-05-12T05:22:42.010Z,28.69
2023-05-12T05:23:42.012Z,28.77
2023-05-12T05:24:41.950Z,28.65
2023-05-12T05:25:41.945Z,28.69
2023-05-12T05:26:41.949Z,28.65
2023-05-12T05:27:41.947Z,28.77
2023-05-12T05:28:41.986Z,28.77
2023-05-12T05:29:41.906Z,28.65
2023-05-12T05:30:41.882Z,28.71
2023-05-12T05:31:41.974Z,28.83
2023-05-12T05:32:41.934Z,28.67
2023-05-12T05:33:41.948Z,28.63
2023-05-12T05:34:41.880Z,28.69
2023-05-12T05:35:41.931Z,28.61
2023-05-12T05:36:41.887Z,28.75
2023-05-12T05:37:41.802Z,28.67
2023-05-12T05:38:41.801Z,28.63
2023-05-12T05:39:41.859Z,28.61
2023-05-12T05:40:52.832Z,28.63
2023-05-12T05:41:41.782Z,28.59
2023-05-12T05:42:41.747Z,28.59
2023-05-12T05:43:41.747Z,28.69
2023-05-12T05:44:41.729Z,28.50
2023-05-12T05:45:41.751Z,28.50
2023-05-12T05:46:41.820Z,28.44
2023-05-12T05:47:41.773Z,28.57
2023-05-12T05:48:41.690Z,28.48
2023-05-12T05:49:41.680Z,28.46
2023-05-12T05:50:41.648Z,28.28
2023-05-12T05:51:41.667Z,28.34
2023-05-12T05:52:41.633Z,28.42
2023-05-12T05:53:41.610Z,28.32
2023-05-12T05:54:41.662Z,28.40
2023-05-12T05:55:41.591Z,28.24
2023-05-12T05:56:41.675Z,28.32
2023-05-12T05:57:41.571Z,28.23
2023-05-12T05:58:41.687Z,28.09
2023-05-12T06:01:05.599Z,31.33
2023-05-12T06:02:06.629Z,31.23
2023-05-12T06:03:06.515Z,31.30
2023-05-12T06:04:06.518Z,30.93
2023-05-12T06:05:06.404Z,30.64
2023-05-12T06:06:06.386Z,30.43
2023-05-12T06:07:06.396Z,30.30
2023-05-12T06:08:06.342Z,30.08
2023-05-12T06:09:06.323Z,29.87
2023-05-12T06:10:06.335Z,29.80
2023-05-12T06:11:06.341Z,29.65
2023-05-12T06:12:06.332Z,29.36
2023-05-12T06:13:06.356Z,29.42
2023-05-12T06:14:06.292Z,29.13
2023-05-12T06:15:06.260Z,29.11
2023-05-12T06:16:06.246Z,29.01
2023-05-12T06:17:06.299Z,28.79
2023-05-12T06:18:06.286Z,28.69
2023-05-12T06:19:06.264Z,28.69
2023-05-12T06:20:07.085Z,28.75
2023-05-12T06:21:06.362Z,28.44
2023-05-12T06:22:06.170Z,28.44
2023-05-12T06:23:07.091Z,28.48
2023-05-12T06:24:06.225Z,28.55
2023-05-12T06:25:06.149Z,28.30
2023-05-12T06:26:06.119Z,28.38
2023-05-12T06:27:06.111Z,28.36
2023-05-12T06:28:06.124Z,28.32
2023-05-12T06:29:06.096Z,28.28
2023-05-12T06:31:30.173Z,31.33
2023-05-12T06:32:31.072Z,31.09
2023-05-12T06:33:30.944Z,30.86
2023-05-12T06:34:31.039Z,30.57
2023-05-12T06:35:30.901Z,30.30
2023-05-12T06:36:30.903Z,30.00
2023-05-12T06:37:30.858Z,29.76
2023-05-12T06:38:51.874Z,29.51
2023-05-12T06:39:30.854Z,29.40
2023-05-12T06:40:30.828Z,29.13
2023-05-12T06:41:30.815Z,28.93
2023-05-12T06:42:30.851Z,28.75
2023-05-12T06:43:30.859Z,28.83
2023-05-12T06:44:30.765Z,28.69
2023-05-12T06:45:30.811Z,28.48
2023-05-12T06:46:30.754Z,28.38
2023-05-12T06:47:30.758Z,28.36
2023-05-12T06:48:30.753Z,28.28
2023-05-12T06:49:30.737Z,27.98
2023-05-12T06:50:30.716Z,28.00
2023-05-12T06:51:30.705Z,27.85
2023-05-12T06:52:30.678Z,27.85
2023-05-12T06:53:30.751Z,27.62
2023-05-12T06:54:30.639Z,27.64
2023-05-12T06:55:30.655Z,27.64
2023-05-12T06:56:30.659Z,27.59
2023-05-12T06:57:30.619Z,27.46
2023-05-12T06:58:30.617Z,27.37
2023-05-12T06:59:30.575Z,27.35
2023-05-12T07:00:30.580Z,27.26
2023-05-12T07:01:30.595Z,27.23
2023-05-12T07:02:30.663Z,27.19
2023-05-12T07:03:30.595Z,27.12
2023-05-12T07:04:30.528Z,27.07
2023-05-12T07:05:30.558Z,27.05
2023-05-12T07:06:30.500Z,26.98
2023-05-12T07:07:30.512Z,26.98
2023-05-12T07:08:30.483Z,26.94
2023-05-12T07:09:30.525Z,27.03
2023-05-12T07:10:30.441Z,26.98
2023-05-12T07:11:30.438Z,27.00
2023-05-12T07:12:30.446Z,26.91
2023-05-12T07:13:30.445Z,26.81
2023-05-12T07:14:30.441Z,26.79
2023-05-12T07:15:32.607Z,26.96
2023-05-12T07:16:30.406Z,27.00
2023-05-12T07:17:30.422Z,26.89
2023-05-12T07:18:31.980Z,26.84
2023-05-12T07:19:30.345Z,26.74
2023-05-12T07:20:30.352Z,26.62
2023-05-12T07:21:30.347Z,26.65
2023-05-12T07:22:30.346Z,26.67
2023-05-12T07:23:30.342Z,26.48
2023-05-12T07:24:31.227Z,26.58
2023-05-12T07:25:30.303Z,26.58
2023-05-12T07:26:30.302Z,26.53
2023-05-12T07:27:30.483Z,26.50
2023-05-12T07:28:30.286Z,26.48
2023-05-12T07:29:30.314Z,26.42
2023-05-12T07:30:30.220Z,26.43
2023-05-12T07:31:30.386Z,26.36
2023-05-12T07:32:30.278Z,26.38
2023-05-12T07:33:30.181Z,26.32
2023-05-12T07:34:30.521Z,26.33
2023-05-12T07:35:30.156Z,26.30
2023-05-12T07:36:30.154Z,26.32
2023-05-12T07:37:30.146Z,26.30
2023-05-12T07:38:30.113Z,26.15
2023-05-12T07:39:30.141Z,26.17
2023-05-12T07:40:30.082Z,26.18
2023-05-12T07:41:30.225Z,26.10
2023-05-12T07:42:30.079Z,26.07
2023-05-12T07:43:30.085Z,26.07
2023-05-12T07:44:30.070Z,26.05
2023-05-12T07:45:30.036Z,26.05
2023-05-12T07:46:30.073Z,26.02
2023-05-12T07:47:30.055Z,25.99
2023-05-12T07:48:30.030Z,25.94
2023-05-12T07:49:30.007Z,25.95
2023-05-12T07:50:29.965Z,25.99
2023-05-12T07:51:29.989Z,25.97
2023-05-12T07:52:29.989Z,25.89
2023-05-12T07:53:29.946Z,25.87
2023-05-12T07:54:29.974Z,25.95
2023-05-12T07:55:29.916Z,25.97
2023-05-12T07:56:29.913Z,25.95
2023-05-12T07:57:29.883Z,25.87
2023-05-12T07:58:29.931Z,25.97
2023-05-12T07:59:29.878Z,25.81
2023-05-12T08:00:29.855Z,25.76
2023-05-12T08:01:29.841Z,25.70
2023-05-12T08:02:29.897Z,25.67
2023-05-12T08:03:29.927Z,25.57
2023-05-12T08:04:29.824Z,25.54
2023-05-12T08:05:29.793Z,25.52
2023-05-12T08:06:29.777Z,25.44
2023-05-12T08:07:29.788Z,25.32
2023-05-12T08:08:29.827Z,25.48
2023-05-12T08:09:36.244Z,25.40
2023-05-12T08:10:29.751Z,25.29
2023-05-12T08:11:29.712Z,25.17
2023-05-12T08:12:29.693Z,25.29
2023-05-12T08:13:29.715Z,25.25
2023-05-12T08:14:29.689Z,25.11
2023-05-12T08:15:29.653Z,25.15
2023-05-12T08:16:29.680Z,25.08
2023-05-12T08:17:29.706Z,25.02
2023-05-12T08:18:29.684Z,24.94
2023-05-12T08:19:29.616Z,25.06
2023-05-12T08:20:29.606Z,24.87
2023-05-12T08:21:29.583Z,24.94
2023-05-12T08:22:29.589Z,24.93
2023-05-12T08:23:29.687Z,24.85
2023-05-12T08:24:29.579Z,24.90
2023-05-12T08:25:29.585Z,24.76
2023-05-12T08:26:29.567Z,24.84
2023-05-12T08:27:29.566Z,24.84
2023-05-12T08:28:29.585Z,24.97
2023-05-12T08:29:29.514Z,24.91
2023-05-12T08:30:29.480Z,24.82
2023-05-12T08:31:29.594Z,24.97
2023-05-12T08:32:29.458Z,24.88
2023-05-12T08:33:29.439Z,24.91
2023-05-12T08:34:29.442Z,25.02
2023-05-12T08:35:29.421Z,24.88
2023-05-12T08:36:29.396Z,24.75
2023-05-12T08:37:29.386Z,24.66
2023-05-12T08:38:29.382Z,24.56
2023-05-12T08:39:29.387Z,24.76
2023-05-12T08:40:29.408Z,24.81
2023-05-12T08:41:29.339Z,24.65
2023-05-12T08:42:29.354Z,24.69
2023-05-12T08:43:29.316Z,24.69
2023-05-12T08:44:29.302Z,24.62
2023-05-12T08:45:29.331Z,24.60
2023-05-12T08:46:29.302Z,24.56
2023-05-12T08:47:29.277Z,24.53
2023-05-12T08:48:29.265Z,24.36
2023-05-12T08:49:29.227Z,24.39
2023-05-12T08:50:29.239Z,24.57
2023-05-12T08:51:29.254Z,24.55
2023-05-12T08:52:29.201Z,24.55
2023-05-12T08:53:29.185Z,24.52
2023-05-12T08:54:29.176Z,24.63
2023-05-12T08:55:32.811Z,24.52
2023-05-12T08:57:29.782Z,24.49
2023-05-12T08:58:40.463Z,24.60
2023-05-12T08:59:29.113Z,24.43
2023-05-12T09:00:29.182Z,24.39
2023-05-12T09:01:29.149Z,24.43
2023-05-12T09:02:37.783Z,24.32
2023-05-12T09:03:29.066Z,24.30
2023-05-12T09:04:29.060Z,24.26
2023-05-12T09:05:29.036Z,24.27
2023-05-12T09:06:29.029Z,24.24
2023-05-12T09:07:29.007Z,24.32
2023-05-12T09:08:29.029Z,24.27
2023-05-12T09:09:29.153Z,24.23
2023-05-12T09:11:28.957Z,24.23
2023-05-12T09:12:28.957Z,24.20
2023-05-12T09:13:28.933Z,24.20
2023-05-12T09:14:28.929Z,24.19
2023-05-12T09:15:28.917Z,24.22
2023-05-12T09:16:28.946Z,24.17
2023-05-12T09:17:28.930Z,24.19
2023-05-12T09:18:28.886Z,24.08
2023-05-12T09:19:28.853Z,24.19
2023-05-12T09:20:31.899Z,24.13
2023-05-12T09:21:28.827Z,24.09
2023-05-12T09:22:28.806Z,24.06
2023-05-12T09:23:28.800Z,24.16
2023-05-12T09:24:28.789Z,24.23
2023-05-12T09:25:28.796Z,24.26
2023-05-12T09:26:29.056Z,24.06
2023-05-12T09:27:28.778Z,24.22
2023-05-12T09:28:28.763Z,24.10
2023-05-12T09:29:31.809Z,24.06
2023-05-12T09:30:28.741Z,24.02
2023-05-12T09:31:28.739Z,24.09
2023-05-12T09:32:28.991Z,24.06
2023-05-12T09:33:28.684Z,24.09
2023-05-12T09:34:28.694Z,24.10
2023-05-12T09:35:28.663Z,24.12
2023-05-12T09:36:28.641Z,24.17
2023-05-12T09:37:28.637Z,24.10
2023-05-12T09:38:28.603Z,24.06
2023-05-12T09:39:28.603Z,24.09
2023-05-12T09:40:28.581Z,24.13
2023-05-12T09:41:28.669Z,24.12
2023-05-12T09:42:28.567Z,24.10
2023-05-12T09:43:28.554Z,24.09
2023-05-12T09:44:28.545Z,24.13
2023-05-12T09:45:28.503Z,24.03
2023-05-12T09:46:28.605Z,23.95
2023-05-12T09:47:28.522Z,23.92
2023-05-12T09:48:28.500Z,23.94
2023-05-12T09:49:28.443Z,23.91
2023-05-12T09:50:32.458Z,23.95
2023-05-12T09:51:28.454Z,23.97
2023-05-12T09:52:28.421Z,23.99
2023-05-12T09:53:28.417Z,24.02
2023-05-12T09:54:28.468Z,23.84
2023-05-12T09:55:28.381Z,24.01
2023-05-12T09:56:28.403Z,23.97
2023-05-12T09:57:28.342Z,23.95
2023-05-12T09:58:28.333Z,23.81
2023-05-12T09:59:28.324Z,23.84
2023-05-12T10:00:43.308Z,23.90
2023-05-12T10:01:28.364Z,23.80
2023-05-12T10:02:28.438Z,23.85
2023-05-12T10:03:28.298Z,23.76
2023-05-12T10:04:28.337Z,23.69
2023-05-12T10:05:28.241Z,23.72
2023-05-12T10:06:28.313Z,23.75
2023-05-12T10:07:28.215Z,23.79
2023-05-12T10:08:28.204Z,23.69
2023-05-12T10:09:28.206Z,23.76
2023-05-12T10:10:28.180Z,23.67
2023-05-12T10:11:28.151Z,23.64
2023-05-12T10:12:28.164Z,23.69
2023-05-12T10:13:28.147Z,23.67
2023-05-12T10:14:28.131Z,23.61
2023-05-12T10:15:28.106Z,23.67
2023-05-12T10:16:28.803Z,23.67
2023-05-12T10:17:28.109Z,23.53
2023-05-12T10:18:28.094Z,23.59
2023-05-12T10:19:28.063Z,23.51
2023-05-12T10:20:28.079Z,23.51
2023-05-12T10:21:28.051Z,23.48
2023-05-12T10:22:28.043Z,23.38
2023-05-12T10:23:28.023Z,23.25
2023-05-12T10:24:28.032Z,23.22
2023-05-12T10:25:27.976Z,23.14
2023-05-12T10:26:27.949Z,23.09
2023-05-12T10:27:27.963Z,22.99
2023-05-12T10:28:27.960Z,23.01
2023-05-12T10:29:27.921Z,22.96
2023-05-12T10:30:27.912Z,22.91
2023-05-12T10:31:28.020Z,22.94
2023-05-12T10:32:27.905Z,22.91
2023-05-12T10:33:27.878Z,22.89
2023-05-12T10:34:27.861Z,22.79
2023-05-12T10:35:27.835Z,22.84
2023-05-12T10:36:27.826Z,22.86
2023-05-12T10:37:27.825Z,22.86
2023-05-12T10:38:27.868Z,22.91
2023-05-12T10:39:27.790Z,22.86
2023-05-12T10:40:27.778Z,22.91
2023-05-12T10:41:27.764Z,22.94
2023-05-12T10:42:27.756Z,22.91
2023-05-12T10:43:27.786Z,22.99
2023-05-12T10:44:27.723Z,23.01
2023-05-12T10:45:27.719Z,22.99
2023-05-12T10:46:27.748Z,23.01
2023-05-12T10:47:27.970Z,23.09
2023-05-12T10:48:27.673Z,23.11
2023-05-12T10:49:27.646Z,23.17
2023-05-12T10:50:27.643Z,23.19
2023-05-12T10:51:27.617Z,23.25
2023-05-12T10:52:27.606Z,23.35
2023-05-12T10:53:38.031Z,23.32
2023-05-12T10:54:27.592Z,23.45
2023-05-12T10:55:27.718Z,23.43
2023-05-12T10:56:27.817Z,23.56
2023-05-12T10:57:27.786Z,23.48
2023-05-12T10:58:27.841Z,23.56
2023-05-12T10:59:28.067Z,23.53
2023-05-12T11:00:28.158Z,23.64
2023-05-12T11:01:27.739Z,23.67
2023-05-12T11:02:27.976Z,23.67
2023-05-12T11:03:28.930Z,23.61
2023-05-12T11:04:27.559Z,23.56
2023-05-12T11:05:27.899Z,23.67
2023-05-12T11:06:27.694Z,23.72
2023-05-12T11:07:27.665Z,23.69
2023-05-12T11:08:28.463Z,23.64
2023-05-12T11:09:29.183Z,23.69
2023-05-12T11:10:27.556Z,23.56
2023-05-12T11:11:27.845Z,23.72
2023-05-12T11:12:27.384Z,23.72
2023-05-12T11:13:27.381Z,23.69
2023-05-12T11:14:27.351Z,23.77
2023-05-12T11:15:27.325Z,23.71
2023-05-12T11:16:27.368Z,23.75
2023-05-12T11:17:27.336Z,23.76
2023-05-12T11:18:27.343Z,23.69
2023-05-12T11:19:27.312Z,23.69
2023-05-12T11:20:29.537Z,23.69
2023-05-12T11:21:27.257Z,23.76
2023-05-12T11:22:27.235Z,23.69
2023-05-12T11:23:27.217Z,23.69
2023-05-12T11:24:27.250Z,23.72
2023-05-12T11:25:27.216Z,23.69
2023-05-12T11:26:27.196Z,23.69
2023-05-12T11:27:27.170Z,23.69
2023-05-12T11:28:27.179Z,23.61
2023-05-12T11:29:27.175Z,23.64
2023-05-12T11:30:27.162Z,23.59
2023-05-12T11:31:27.149Z,23.53
2023-05-12T11:32:27.189Z,23.56
2023-05-12T11:33:27.086Z,23.48
2023-05-12T11:34:27.075Z,23.43
2023-05-12T11:35:27.076Z,23.35
2023-05-12T11:36:27.076Z,23.27
2023-05-12T11:37:27.047Z,23.27
2023-05-12T11:38:27.026Z,23.17
2023-05-12T11:39:27.002Z,23.17
2023-05-12T11:40:26.995Z,23.04
2023-05-12T11:41:26.981Z,23.19
2023-05-12T11:42:26.960Z,23.04
2023-05-12T11:43:26.952Z,23.04
2023-05-12T11:44:26.963Z,23.11
2023-05-12T11:45:26.960Z,23.17
2023-05-12T11:46:26.945Z,23.01
2023-05-12T11:47:26.947Z,23.01
2023-05-12T11:48:26.990Z,22.84
2023-05-12T11:49:26.864Z,22.76
2023-05-12T11:50:26.868Z,22.69
2023-05-12T11:51:26.893Z,22.69
2023-05-12T11:52:26.875Z,22.64
2023-05-12T11:53:27.683Z,22.49
2023-05-12T11:54:26.837Z,22.39
2023-05-12T11:55:26.812Z,22.34
2023-05-12T11:56:26.788Z,22.25
2023-05-12T11:57:26.791Z,22.20
2023-05-12T11:58:26.927Z,22.15
2023-05-12T11:59:26.753Z,22.18
2023-05-12T12:00:26.737Z,22.08
2023-05-12T12:01:26.747Z,22.15
2023-05-12T12:02:26.786Z,22.18
2023-05-12T12:03:26.775Z,22.11
2023-05-12T12:04:26.711Z,22.08
2023-05-12T12:05:26.696Z,22.11
2023-05-12T12:06:26.671Z,22.11
2023-05-12T12:07:26.670Z,21.97
2023-05-12T12:08:26.775Z,22.01
2023-05-12T12:09:26.619Z,21.90
2023-05-12T12:10:26.613Z,21.81
2023-05-12T12:11:26.595Z,21.83
2023-05-12T12:12:26.588Z,21.81
2023-05-12T12:13:26.594Z,21.74
2023-05-12T12:14:26.555Z,21.76
2023-05-12T12:15:26.537Z,21.65
2023-05-12T12:16:26.566Z,21.62
2023-05-12T12:17:26.622Z,21.56
2023-05-12T12:18:26.554Z,21.60
2023-05-12T12:19:26.511Z,21.74
2023-05-12T12:20:26.479Z,21.62
2023-05-12T12:21:26.510Z,21.65
2023-05-12T12:22:26.448Z,21.69
2023-05-12T12:23:26.456Z,21.71
2023-05-12T12:24:26.428Z,21.71
2023-05-12T12:25:26.463Z,21.78
2023-05-12T12:26:26.390Z,21.67
2023-05-12T12:27:26.403Z,21.71
2023-05-12T12:28:26.383Z,21.74
2023-05-12T12:29:26.343Z,21.74
2023-05-12T12:30:26.390Z,21.85
2023-05-12T12:31:26.412Z,21.83
2023-05-12T12:32:26.356Z,21.78
2023-05-12T12:33:26.307Z,21.71
2023-05-12T12:34:26.288Z,21.74
2023-05-12T12:35:26.273Z,21.62
2023-05-12T12:36:26.260Z,21.62
2023-05-12T12:37:26.254Z,21.74
2023-05-12T12:38:26.233Z,21.49
2023-05-12T12:39:26.249Z,21.62
2023-05-12T12:40:26.198Z,21.65
2023-05-12T12:41:26.215Z,21.67
2023-05-12T12:42:26.214Z,21.88
2023-05-12T12:43:26.174Z,21.65
2023-05-12T12:44:26.149Z,21.62
2023-05-12T12:45:26.562Z,21.67
2023-05-12T12:46:26.148Z,21.71
2023-05-12T12:47:26.210Z,21.67
2023-05-12T12:48:26.103Z,21.62
2023-05-12T12:49:26.100Z,21.62
2023-05-12T12:50:27.274Z,21.53
2023-05-12T12:51:28.494Z,21.53
2023-05-12T12:52:26.077Z,21.53
2023-05-12T12:53:26.049Z,21.49
2023-05-12T12:54:26.019Z,21.51
2023-05-12T12:55:26.002Z,21.40
2023-05-12T12:56:26.006Z,21.47
2023-05-12T12:57:26.062Z,21.40
2023-05-12T12:58:25.961Z,21.49
2023-05-12T12:59:25.948Z,21.56